Time;durP1;ratioP1;P1;durP2;ratioP2;P2;SDS_P1;SDS_P2;PMS_P1;PMS_P2;Temp;Humidity;BMP_temperature;BMP_pressure;BME280_temperature;BME280_humidity;BME280_pressure;Samples;Min_cycle;Max_cycle;Signal;HPM_P1;HPM_P2
2021/06/09 00:00:33;;;;;;;35.20;32.10;;;16.30;99.90;;;;;;5051753;28;20488;-68
2021/06/09 00:03:00;;;;;;;37.40;33.60;;;16.20;99.90;;;;;;5052072;28;20447;-68
2021/06/09 00:05:26;;;;;;;37.77;34.57;;;16.10;99.90;;;;;;5052000;28;20444;-68
2021/06/09 00:07:52;;;;;;;38.20;35.00;;;16.10;99.90;;;;;;5052052;28;20443;-68
2021/06/09 00:10:19;;;;;;;36.93;33.63;;;16.10;99.90;;;;;;5051911;28;20472;-68
2021/06/09 00:12:45;;;;;;;37.83;34.53;;;16.10;99.90;;;;;;5051892;28;20436;-68
2021/06/09 00:15:14;;;;;;;37.47;34.03;;;16.00;99.90;;;;;;5051809;28;20444;-68
2021/06/09 00:17:42;;;;;;;38.83;35.37;;;16.00;99.90;;;;;;5051910;28;20453;-68
2021/06/09 00:20:13;;;;;;;40.10;36.73;;;16.00;99.90;;;;;;5051691;28;20484;-68
2021/06/09 00:22:40;;;;;;;41.33;37.67;;;16.00;99.90;;;;;;5051864;28;20466;-68
2021/06/09 00:25:14;;;;;;;39.87;36.13;;;16.00;99.90;;;;;;5051582;28;20440;-68
2021/06/09 00:27:41;;;;;;;38.33;35.13;;;15.90;99.90;;;;;;5051860;28;20810;-68
2021/06/09 00:30:08;;;;;;;39.60;35.60;;;16.00;99.90;;;;;;5051490;28;20479;-68
2021/06/09 00:32:34;;;;;;;40.30;36.50;;;15.90;99.90;;;;;;5050765;28;20444;-68
2021/06/09 00:35:02;;;;;;;41.03;37.27;;;15.90;99.90;;;;;;5051529;28;20857;-68
2021/06/09 00:37:28;;;;;;;41.83;37.83;;;15.90;99.90;;;;;;5051510;28;20444;-68
2021/06/09 00:39:54;;;;;;;40.67;36.80;;;15.90;99.90;;;;;;5051409;28;20992;-68
2021/06/09 00:42:21;;;;;;;40.80;36.83;;;15.80;99.90;;;;;;5051558;28;20448;-68
2021/06/09 00:44:48;;;;;;;38.90;35.43;;;15.80;99.90;;;;;;5051405;28;20506;-68
2021/06/09 00:47:20;;;;;;;38.13;34.93;;;15.80;99.90;;;;;;5051256;28;20531;-68
2021/06/09 00:49:46;;;;;;;38.97;35.33;;;15.70;99.90;;;;;;5051388;28;20467;-68
2021/06/09 00:52:14;;;;;;;39.07;35.57;;;15.70;99.90;;;;;;5051380;28;20440;-68
2021/06/09 00:54:40;;;;;;;39.07;35.30;;;15.70;99.90;;;;;;5051365;28;20444;-68
2021/06/09 00:57:07;;;;;;;39.00;35.50;;;15.70;99.90;;;;;;5050990;28;20444;-68
2021/06/09 00:59:34;;;;;;;39.90;36.40;;;15.60;99.90;;;;;;5051195;28;20488;-68
2021/06/09 01:02:00;;;;;;;39.97;36.30;;;15.60;99.90;;;;;;5051485;28;20448;-68
2021/06/09 01:04:27;;;;;;;40.60;36.97;;;15.60;99.90;;;;;;5051137;28;20448;-68
2021/06/09 01:06:53;;;;;;;41.63;37.83;;;15.60;99.90;;;;;;5051151;28;20448;-68
2021/06/09 01:09:21;;;;;;;41.30;37.23;;;15.60;99.90;;;;;;5051189;28;20440;-68
2021/06/09 01:11:47;;;;;;;40.57;36.20;;;15.60;99.90;;;;;;5051248;28;20505;-68
2021/06/09 01:14:14;;;;;;;39.97;35.87;;;15.60;99.90;;;;;;5051184;28;20455;-68
2021/06/09 01:16:40;;;;;;;39.83;35.70;;;15.60;99.90;;;;;;5051029;28;20448;-68
2021/06/09 01:19:07;;;;;;;43.53;39.40;;;15.60;99.90;;;;;;5050937;28;20459;-68
2021/06/09 01:21:35;;;;;;;41.00;36.80;;;15.60;99.90;;;;;;5051128;28;20440;-68
2021/06/09 01:24:03;;;;;;;44.30;39.83;;;15.60;99.90;;;;;;5051136;28;20453;-68
2021/06/09 01:26:31;;;;;;;46.00;40.43;;;15.50;99.90;;;;;;5050913;28;20494;-68
2021/06/09 01:28:59;;;;;;;44.90;40.30;;;15.50;99.90;;;;;;5051167;28;20471;-68
2021/06/09 01:31:26;;;;;;;45.07;40.57;;;15.40;99.90;;;;;;5050838;28;20472;-68
2021/06/09 01:33:52;;;;;;;42.27;38.00;;;15.40;99.90;;;;;;5050839;28;20805;-68
2021/06/09 01:36:21;;;;;;;40.57;36.77;;;15.40;99.90;;;;;;5050847;28;20463;-68
2021/06/09 01:38:49;;;;;;;41.93;37.87;;;15.30;99.90;;;;;;5050928;28;20806;-68
2021/06/09 01:41:15;;;;;;;42.33;37.80;;;15.30;99.90;;;;;;5050751;28;20480;-68
2021/06/09 01:43:43;;;;;;;40.83;37.00;;;15.30;99.90;;;;;;5052610;28;20818;-68
2021/06/09 01:46:09;;;;;;;43.67;39.00;;;15.30;99.90;;;;;;5054465;28;21435;-68
2021/06/09 01:48:35;;;;;;;47.03;42.10;;;15.20;99.90;;;;;;5054715;28;20448;-68
2021/06/09 01:51:02;;;;;;;45.33;40.70;;;15.20;99.90;;;;;;5054490;28;20490;-68
2021/06/09 01:53:29;;;;;;;45.97;41.30;;;15.20;99.90;;;;;;5054424;28;20601;-68
2021/06/09 01:56:00;;;;;;;45.17;40.73;;;15.20;99.90;;;;;;5054387;28;20501;-68
2021/06/09 01:58:26;;;;;;;45.47;40.87;;;15.20;99.90;;;;;;5054541;28;20807;-68
2021/06/09 02:00:54;;;;;;;46.27;41.40;;;15.20;99.90;;;;;;5054137;28;20492;-68
2021/06/09 02:03:20;;;;;;;45.63;40.93;;;15.20;99.90;;;;;;5054406;28;20448;-68
2021/06/09 02:05:46;;;;;;;47.77;42.67;;;15.10;99.90;;;;;;5054133;28;20863;-68
2021/06/09 02:08:15;;;;;;;49.37;44.17;;;15.10;99.90;;;;;;5054356;28;20501;-68
2021/06/09 02:10:43;;;;;;;47.40;42.50;;;15.10;99.90;;;;;;5054271;28;20464;-68
2021/06/09 02:13:12;;;;;;;49.33;42.20;;;15.00;99.90;;;;;;5054129;28;20440;-68
2021/06/09 02:15:39;;;;;;;51.20;44.00;;;15.00;99.90;;;;;;5053970;28;20440;-68
2021/06/09 02:18:09;;;;;;;46.63;41.67;;;14.90;99.90;;;;;;5054125;28;20443;-68
2021/06/09 02:20:38;;;;;;;42.80;38.50;;;15.00;99.90;;;;;;5054022;28;20483;-68
2021/06/09 02:23:04;;;;;;;43.63;39.10;;;14.90;99.90;;;;;;5054096;28;20452;-68
2021/06/09 02:25:30;;;;;;;42.63;38.10;;;14.90;99.90;;;;;;5053666;28;20444;-68
2021/06/09 02:27:58;;;;;;;44.73;40.07;;;14.90;99.90;;;;;;5053948;28;20444;-68
2021/06/09 02:30:25;;;;;;;43.70;39.10;;;14.90;99.90;;;;;;5053769;28;20472;-68
2021/06/09 02:32:52;;;;;;;46.87;41.70;;;14.80;99.90;;;;;;5053803;28;20498;-68
2021/06/09 02:35:20;;;;;;;46.33;41.60;;;14.80;99.90;;;;;;5053855;28;20444;-67
2021/06/09 02:37:50;;;;;;;45.47;40.57;;;14.80;99.90;;;;;;5053718;28;20440;-68
2021/06/09 02:40:17;;;;;;;45.53;40.93;;;14.80;99.90;;;;;;5053591;28;20989;-68
2021/06/09 02:42:43;;;;;;;46.30;41.53;;;14.80;99.90;;;;;;5053653;28;20461;-68
2021/06/09 02:45:13;;;;;;;50.10;43.07;;;14.70;99.90;;;;;;5053502;28;20445;-68
2021/06/09 02:47:45;;;;;;;46.33;41.30;;;14.70;99.90;;;;;;5053590;28;20484;-68
2021/06/09 02:50:12;;;;;;;45.73;40.87;;;14.70;99.90;;;;;;5053566;28;20895;-68
2021/06/09 02:52:48;;;;;;;44.40;39.87;;;14.70;99.90;;;;;;5053474;28;20444;-68
2021/06/09 02:55:20;;;;;;;43.57;38.87;;;14.70;99.90;;;;;;5052549;28;20443;-68
2021/06/09 02:57:56;;;;;;;50.60;43.70;;;14.70;99.90;;;;;;5053409;28;20459;-68
2021/06/09 03:00:29;;;;;;;45.57;41.07;;;14.70;99.90;;;;;;5053176;28;20858;-68
2021/06/09 03:03:06;;;;;;;44.33;39.63;;;14.70;99.90;;;;;;5053308;28;20444;-68
2021/06/09 03:05:36;;;;;;;47.53;42.43;;;14.60;99.90;;;;;;5053136;28;20456;-68
2021/06/09 03:08:08;;;;;;;45.73;41.07;;;14.60;99.90;;;;;;5053186;28;20473;-68
2021/06/09 03:10:46;;;;;;;43.97;39.40;;;14.60;99.90;;;;;;5053147;28;20818;-69
2021/06/09 03:13:25;;;;;;;53.43;43.37;;;14.60;99.90;;;;;;5053097;28;20448;-69
2021/06/09 03:15:58;;;;;;;47.93;41.77;;;14.50;99.90;;;;;;5053003;28;20451;-69
2021/06/09 03:18:28;;;;;;;45.77;40.40;;;14.60;99.90;;;;;;5053054;28;20945;-69
2021/06/09 03:20:59;;;;;;;44.90;40.50;;;14.60;99.90;;;;;;5052770;28;20480;-68
2021/06/09 03:23:46;;;;;;;42.77;38.17;;;14.60;99.90;;;;;;5052901;28;20444;-68
2021/06/09 03:26:19;;;;;;;44.33;36.50;;;14.50;99.90;;;;;;5053026;28;20506;-68
2021/06/09 03:28:54;;;;;;;44.40;39.30;;;14.50;99.90;;;;;;5052930;28;20440;-68
2021/06/09 03:31:24;;;;;;;47.57;40.70;;;14.50;99.90;;;;;;5053125;28;20460;-68
2021/06/09 03:33:54;;;;;;;46.73;41.27;;;14.50;99.90;;;;;;5053181;28;20821;-68
2021/06/09 03:36:22;;;;;;;59.87;48.90;;;14.50;99.90;;;;;;5052725;28;20444;-68
2021/06/09 03:38:54;;;;;;;58.37;46.67;;;14.60;99.90;;;;;;5052846;28;20448;-68
2021/06/09 03:41:21;;;;;;;47.30;42.10;;;14.60;99.90;;;;;;5052716;28;20582;-68
2021/06/09 03:43:52;;;;;;;53.97;48.20;;;14.60;99.90;;;;;;5052710;28;20964;-67
2021/06/09 03:46:21;;;;;;;57.33;47.40;;;14.70;99.90;;;;;;5052395;28;20459;-67
2021/06/09 03:48:49;;;;;;;58.27;50.07;;;14.70;99.90;;;;;;5052302;28;20444;-67
2021/06/09 03:51:18;;;;;;;49.80;44.67;;;14.70;99.90;;;;;;5052307;28;20456;-67
2021/06/09 03:53:45;;;;;;;49.13;43.87;;;14.70;99.90;;;;;;5052344;28;20959;-67
2021/06/09 03:56:12;;;;;;;52.93;45.40;;;14.70;99.90;;;;;;5052123;28;21122;-66
2021/06/09 03:58:41;;;;;;;55.17;46.00;;;14.70;99.90;;;;;;5052206;28;20448;-67
2021/06/09 04:01:08;;;;;;;49.57;42.87;;;14.70;99.90;;;;;;5051879;28;20528;-68
2021/06/09 04:03:38;;;;;;;52.23;46.50;;;14.70;99.90;;;;;;5052147;28;20471;-68
2021/06/09 04:06:07;;;;;;;48.83;42.10;;;14.70;99.90;;;;;;5051755;28;20452;-68
2021/06/09 04:08:38;;;;;;;52.53;45.73;;;14.80;99.90;;;;;;5052053;28;20501;-68
2021/06/09 04:11:05;;;;;;;49.20;43.87;;;14.80;99.90;;;;;;5051964;28;20805;-68
2021/06/09 04:13:31;;;;;;;50.70;45.33;;;14.80;99.90;;;;;;5051918;28;20467;-68
2021/06/09 04:16:00;;;;;;;52.37;45.40;;;14.90;99.90;;;;;;5051770;28;20444;-67
2021/06/09 04:18:29;;;;;;;49.57;43.37;;;15.00;99.90;;;;;;5051782;28;20486;-68
2021/06/09 04:20:57;;;;;;;54.43;47.47;;;15.00;99.90;;;;;;5051690;28;20487;-68
2021/06/09 04:23:23;;;;;;;53.73;46.30;;;15.10;99.90;;;;;;5051783;28;20444;-68
2021/06/09 04:25:51;;;;;;;54.13;48.23;;;15.10;99.90;;;;;;5051575;28;20451;-67
2021/06/09 04:28:19;;;;;;;52.00;45.80;;;15.20;99.90;;;;;;5051714;28;20452;-68
2021/06/09 04:30:47;;;;;;;53.23;47.47;;;15.30;99.90;;;;;;5051524;28;20467;-68
2021/06/09 04:33:14;;;;;;;47.80;42.50;;;15.30;99.90;;;;;;5051627;28;20937;-68
2021/06/09 04:35:42;;;;;;;50.40;44.93;;;15.40;99.90;;;;;;5051477;28;20444;-68
2021/06/09 04:38:13;;;;;;;46.87;42.00;;;15.50;99.90;;;;;;5050176;28;20452;-68
2021/06/09 04:40:39;;;;;;;53.93;48.07;;;15.50;99.90;;;;;;5051387;28;20480;-68
2021/06/09 04:43:07;;;;;;;50.73;45.47;;;15.50;99.90;;;;;;5051828;28;20492;-67
2021/06/09 04:45:33;;;;;;;52.67;47.03;;;15.70;99.90;;;;;;5051364;28;20474;-67
2021/06/09 04:48:00;;;;;;;53.07;47.67;;;15.70;99.90;;;;;;5051602;28;20444;-67
2021/06/09 04:50:27;;;;;;;52.87;47.20;;;15.80;99.90;;;;;;5051354;28;20819;-67
2021/06/09 04:53:09;;;;;;;48.63;43.80;;;15.90;99.90;;;;;;5051317;28;20935;-67
2021/06/09 04:55:36;;;;;;;48.43;43.40;;;16.00;99.90;;;;;;5051128;28;20444;-68
2021/06/09 04:58:03;;;;;;;49.67;44.27;;;16.00;99.90;;;;;;5051305;28;20995;-67
2021/06/09 05:00:31;;;;;;;50.60;45.40;;;16.10;99.90;;;;;;5051456;28;20484;-67
2021/06/09 05:02:57;;;;;;;50.03;45.17;;;16.20;99.90;;;;;;5051235;28;20447;-67
2021/06/09 05:05:23;;;;;;;48.17;43.50;;;16.30;99.90;;;;;;5051142;28;20444;-67
2021/06/09 05:07:49;;;;;;;48.27;43.87;;;16.40;99.90;;;;;;5051271;28;20480;-67
2021/06/09 05:10:16;;;;;;;46.63;42.30;;;16.50;99.90;;;;;;5051194;28;20456;-68
2021/06/09 05:12:49;;;;;;;46.10;41.20;;;16.60;99.90;;;;;;5051238;28;20443;-67
2021/06/09 05:15:16;;;;;;;45.03;40.57;;;16.70;99.90;;;;;;5051288;28;20443;-67
2021/06/09 05:17:45;;;;;;;46.30;41.87;;;16.80;99.90;;;;;;5051175;28;20448;-68
2021/06/09 05:20:19;;;;;;;45.10;40.80;;;16.90;99.90;;;;;;5055180;28;20545;-67
2021/06/09 05:22:51;;;;;;;47.10;42.33;;;17.00;99.90;;;;;;5055195;28;20451;-67
2021/06/09 05:25:19;;;;;;;43.77;39.80;;;17.10;99.90;;;;;;5055061;28;20498;-67
2021/06/09 05:27:46;;;;;;;42.97;38.97;;;17.10;99.90;;;;;;5054915;28;20478;-67
2021/06/09 05:30:16;;;;;;;44.57;40.23;;;17.20;99.90;;;;;;5054795;28;20460;-68
2021/06/09 05:32:45;;;;;;;44.40;40.33;;;17.40;99.90;;;;;;5054869;28;20448;-68
2021/06/09 05:35:14;;;;;;;42.53;38.83;;;17.40;99.90;;;;;;5054964;28;20940;-68
2021/06/09 05:37:42;;;;;;;45.13;41.13;;;17.50;99.90;;;;;;5054735;28;20444;-68
2021/06/09 05:40:10;;;;;;;45.87;41.87;;;17.60;99.90;;;;;;5054673;28;20863;-68
2021/06/09 05:42:37;;;;;;;43.87;39.80;;;17.70;99.90;;;;;;5054682;28;21023;-68
2021/06/09 05:45:05;;;;;;;44.37;40.47;;;17.80;99.90;;;;;;5054794;28;20494;-68
2021/06/09 05:47:32;;;;;;;42.47;38.90;;;17.90;99.90;;;;;;5054565;28;20448;-68
2021/06/09 05:50:15;;;;;;;43.10;39.50;;;18.00;99.90;;;;;;5054628;28;20460;-68
2021/06/09 05:52:41;;;;;;;42.77;38.77;;;18.20;99.90;;;;;;5054546;28;20760;-67
2021/06/09 05:55:14;;;;;;;44.43;40.50;;;18.20;99.90;;;;;;5054465;28;20444;-68
2021/06/09 05:57:41;;;;;;;44.87;41.07;;;18.30;99.90;;;;;;5054504;28;20455;-67
2021/06/09 06:00:08;;;;;;;44.27;40.07;;;18.40;99.90;;;;;;5054056;28;20498;-68
2021/06/09 06:02:36;;;;;;;46.60;42.30;;;18.50;99.90;;;;;;5054275;28;20448;-67
2021/06/09 06:05:03;;;;;;;44.67;41.10;;;18.70;99.90;;;;;;5054341;28;20543;-68
2021/06/09 06:07:32;;;;;;;42.27;38.70;;;18.80;99.90;;;;;;5053992;28;20439;-68
2021/06/09 06:09:59;;;;;;;46.40;42.50;;;18.80;99.90;;;;;;5054217;28;20486;-67
2021/06/09 06:12:26;;;;;;;43.47;39.93;;;19.00;99.90;;;;;;5054242;28;20461;-67
2021/06/09 06:14:53;;;;;;;46.13;42.27;;;19.10;99.90;;;;;;5054231;28;20443;-68
2021/06/09 06:17:20;;;;;;;44.23;40.60;;;19.20;99.90;;;;;;5054274;28;20443;-68
2021/06/09 06:19:49;;;;;;;45.57;41.70;;;19.30;99.90;;;;;;5053944;28;20472;-68
2021/06/09 06:22:17;;;;;;;44.03;40.63;;;19.50;99.90;;;;;;5054091;28;20443;-67
2021/06/09 06:24:46;;;;;;;43.47;40.07;;;19.50;99.90;;;;;;5053971;28;20448;-67
2021/06/09 06:27:13;;;;;;;41.43;38.33;;;19.60;99.90;;;;;;5053900;28;20501;-67
2021/06/09 06:29:39;;;;;;;46.47;42.87;;;19.70;99.90;;;;;;5052798;28;20468;-68
2021/06/09 06:32:07;;;;;;;42.97;39.80;;;19.90;99.90;;;;;;5053959;28;20447;-67
2021/06/09 06:34:37;;;;;;;43.37;39.37;;;20.00;99.90;;;;;;5053894;28;20452;-67
2021/06/09 06:37:04;;;;;;;45.47;41.70;;;20.20;99.90;;;;;;5053811;28;20448;-68
2021/06/09 06:39:31;;;;;;;43.07;39.47;;;20.30;99.90;;;;;;5053701;28;20467;-67
2021/06/09 06:41:59;;;;;;;45.40;41.83;;;20.40;99.90;;;;;;5053807;28;20440;-68
2021/06/09 06:44:25;;;;;;;43.50;40.30;;;20.50;99.90;;;;;;5053842;28;20456;-67
2021/06/09 06:46:52;;;;;;;45.53;41.93;;;20.60;99.90;;;;;;5053386;28;20448;-67
2021/06/09 06:49:19;;;;;;;44.90;41.23;;;20.60;99.90;;;;;;5053381;28;20487;-67
2021/06/09 06:51:46;;;;;;;42.07;38.97;;;20.70;99.90;;;;;;5053518;28;20448;-67
2021/06/09 06:54:13;;;;;;;43.57;40.17;;;20.90;99.90;;;;;;5053305;28;20444;-67
2021/06/09 06:56:40;;;;;;;45.30;41.93;;;21.00;99.90;;;;;;5053338;28;20441;-68
2021/06/09 06:59:08;;;;;;;46.07;41.93;;;21.10;99.90;;;;;;5053369;28;20471;-67
2021/06/09 07:01:36;;;;;;;45.47;41.53;;;21.10;99.90;;;;;;5053240;28;20479;-67
2021/06/09 07:04:04;;;;;;;44.83;41.33;;;21.30;99.90;;;;;;5053324;28;20781;-67
2021/06/09 07:06:32;;;;;;;44.83;40.97;;;21.40;99.90;;;;;;5053074;28;20808;-67
2021/06/09 07:08:59;;;;;;;47.13;43.60;;;21.40;99.90;;;;;;5053142;28;20451;-67
2021/06/09 07:11:26;;;;;;;45.20;41.60;;;21.50;99.90;;;;;;5053030;28;20471;-68
2021/06/09 07:13:53;;;;;;;45.80;41.57;;;21.60;99.90;;;;;;5053043;28;20451;-68
2021/06/09 07:16:23;;;;;;;44.70;41.30;;;21.80;99.90;;;;;;5052870;28;20444;-68
2021/06/09 07:18:50;;;;;;;46.13;42.50;;;21.80;99.90;;;;;;5053081;28;20448;-67
2021/06/09 07:21:20;;;;;;;47.03;43.20;;;21.80;99.90;;;;;;5052706;28;20491;-67
2021/06/09 07:23:46;;;;;;;49.10;45.23;;;21.90;99.90;;;;;;5052721;28;20444;-68
2021/06/09 07:26:14;;;;;;;47.10;43.30;;;22.00;99.90;;;;;;5052599;28;20447;-67
2021/06/09 07:28:44;;;;;;;46.70;43.00;;;22.10;99.90;;;;;;5052668;28;20466;-67
2021/06/09 07:31:12;;;;;;;46.40;42.83;;;22.20;99.90;;;;;;5052558;28;20467;-67
2021/06/09 07:33:40;;;;;;;47.40;43.80;;;22.20;99.90;;;;;;5052672;28;20445;-67
2021/06/09 07:36:10;;;;;;;45.20;41.70;;;22.20;99.90;;;;;;5052356;28;20447;-67
2021/06/09 07:38:41;;;;;;;48.33;44.80;;;22.30;99.90;;;;;;5052699;28;20448;-67
2021/06/09 07:41:10;;;;;;;46.90;43.40;;;22.40;99.90;;;;;;5052016;28;20927;-68
2021/06/09 07:43:40;;;;;;;47.97;44.30;;;22.40;99.90;;;;;;5052343;28;20452;-68
2021/06/09 07:46:08;;;;;;;45.50;42.10;;;22.40;99.90;;;;;;5052202;28;20445;-68
2021/06/09 07:48:36;;;;;;;46.97;43.03;;;22.60;99.90;;;;;;5052380;28;20444;-67
2021/06/09 07:51:09;;;;;;;47.37;43.70;;;22.70;99.90;;;;;;5052195;28;20969;-67
2021/06/09 07:53:36;;;;;;;45.60;42.20;;;22.80;99.90;;;;;;5052246;28;20444;-67
2021/06/09 07:56:03;;;;;;;46.43;42.70;;;22.90;99.90;;;;;;5052095;28;20458;-67
2021/06/09 07:58:32;;;;;;;43.10;39.67;;;23.10;99.90;;;;;;5052400;28;20984;-68
2021/06/09 08:01:00;;;;;;;46.33;42.50;;;23.20;99.90;;;;;;5052054;28;20894;-67
2021/06/09 08:03:28;;;;;;;42.93;39.83;;;23.30;99.90;;;;;;5052013;28;20791;-68
2021/06/09 08:05:56;;;;;;;45.77;42.43;;;23.40;99.90;;;;;;5051865;28;20543;-68
2021/06/09 08:08:24;;;;;;;44.20;41.17;;;23.50;99.90;;;;;;5052027;28;20948;-68
2021/06/09 08:10:51;;;;;;;45.37;42.07;;;23.70;99.90;;;;;;5051997;28;20459;-68
2021/06/09 08:13:18;;;;;;;42.67;39.47;;;23.80;99.90;;;;;;5051822;28;20950;-68
2021/06/09 08:15:45;;;;;;;44.17;40.67;;;23.90;99.90;;;;;;5051955;28;20758;-67
2021/06/09 08:18:12;;;;;;;46.60;43.10;;;24.00;99.90;;;;;;5051712;28;20448;-68
2021/06/09 08:21:05;;;;;;;44.73;41.53;;;24.10;99.90;;;;;;5051706;28;20590;-68
2021/06/09 08:23:34;;;;;;;41.90;38.97;;;24.20;99.90;;;;;;5052054;28;20506;-68
2021/06/09 08:26:01;;;;;;;43.40;40.10;;;24.30;99.90;;;;;;5051486;28;20817;-68
2021/06/09 08:28:28;;;;;;;42.23;39.13;;;24.50;99.90;;;;;;5051682;28;20441;-68
2021/06/09 08:30:54;;;;;;;40.83;37.83;;;24.60;99.90;;;;;;5051525;28;20766;-69
2021/06/09 08:33:21;;;;;;;41.33;38.47;;;24.60;99.90;;;;;;5051657;28;20444;-68
2021/06/09 08:35:47;;;;;;;43.97;40.07;;;24.70;99.90;;;;;;5051316;28;20447;-68
2021/06/09 08:38:13;;;;;;;41.27;38.37;;;24.80;99.90;;;;;;5051420;28;20443;-69
2021/06/09 08:40:41;;;;;;;38.63;36.03;;;25.00;99.90;;;;;;5051398;28;20480;-68
2021/06/09 08:43:09;;;;;;;41.77;38.57;;;25.10;99.30;;;;;;5051403;28;20809;-68
2021/06/09 08:45:35;;;;;;;36.77;34.23;;;25.20;99.20;;;;;;5051714;28;20451;-68
2021/06/09 08:48:02;;;;;;;40.23;37.37;;;25.30;98.60;;;;;;5051279;28;20444;-68
2021/06/09 08:50:29;;;;;;;39.57;36.87;;;25.30;97.20;;;;;;5051148;28;20460;-68
2021/06/09 08:52:57;;;;;;;38.53;35.83;;;25.50;96.30;;;;;;5050613;28;20451;-69
2021/06/09 08:55:23;;;;;;;39.77;36.87;;;25.60;96.20;;;;;;5051241;28;20987;-68
2021/06/09 08:57:51;;;;;;;42.00;39.17;;;25.80;95.40;;;;;;5051073;28;20474;-68
2021/06/09 09:00:18;;;;;;;39.57;37.00;;;26.00;93.90;;;;;;5051125;28;20488;-69
2021/06/09 09:02:46;;;;;;;43.57;40.37;;;25.90;93.40;;;;;;5051182;28;20481;-68
2021/06/09 09:05:13;;;;;;;42.90;39.97;;;25.80;91.80;;;;;;5051062;28;20444;-68
2021/06/09 09:07:39;;;;;;;42.27;39.20;;;25.60;91.40;;;;;;5051120;28;20448;-68
2021/06/09 09:10:08;;;;;;;44.00;40.83;;;25.60;92.10;;;;;;5051146;28;20467;-68
2021/06/09 09:12:36;;;;;;;38.20;35.60;;;25.70;90.10;;;;;;5051118;28;20459;-69
2021/06/09 09:15:06;;;;;;;39.07;36.53;;;25.90;90.30;;;;;;5051124;28;20960;-69
2021/06/09 09:17:32;;;;;;;40.37;37.50;;;26.20;90.10;;;;;;5050917;28;20454;-68
2021/06/09 09:20:05;;;;;;;44.50;41.20;;;26.30;86.20;;;;;;5051026;28;20460;-69
2021/06/09 09:22:33;;;;;;;40.80;37.80;;;26.20;83.80;;;;;;5050966;28;20473;-69
2021/06/09 09:25:00;;;;;;;40.70;38.07;;;26.30;85.70;;;;;;5051017;28;20543;-69
2021/06/09 09:27:28;;;;;;;38.23;35.53;;;26.70;83.90;;;;;;5050854;28;20447;-68
2021/06/09 09:30:03;;;;;;;41.10;38.20;;;27.40;79.90;;;;;;5050899;28;20463;-68
2021/06/09 09:32:30;;;;;;;38.67;36.27;;;27.80;74.70;;;;;;5050850;28;20482;-68
2021/06/09 09:35:08;;;;;;;41.83;39.13;;;27.90;74.40;;;;;;5050887;28;20452;-68
2021/06/09 09:37:34;;;;;;;43.40;40.50;;;27.80;73.20;;;;;;5050712;28;20444;-68
2021/06/09 09:40:14;;;;;;;41.80;39.10;;;27.80;70.50;;;;;;5050816;28;20479;-68
2021/06/09 09:42:41;;;;;;;41.27;38.70;;;27.80;69.40;;;;;;5050837;28;20440;-68
2021/06/09 09:45:21;;;;;;;41.43;38.73;;;27.60;69.80;;;;;;5050833;28;20799;-69
2021/06/09 09:48:07;;;;;;;36.30;33.60;;;27.60;70.40;;;;;;5050607;28;21015;-69
2021/06/09 09:50:35;;;;;;;37.57;34.93;;;27.30;67.60;;;;;;5050620;28;20480;-69
2021/06/09 09:53:17;;;;;;;36.43;34.13;;;27.10;68.80;;;;;;5050772;28;20452;-69
2021/06/09 09:55:55;;;;;;;39.33;36.73;;;27.10;67.90;;;;;;5050793;28;20850;-68
2021/06/09 09:58:21;;;;;;;35.90;33.53;;;26.60;66.90;;;;;;5050653;28;20451;-69
2021/06/09 10:00:49;;;;;;;34.77;32.57;;;26.70;68.10;;;;;;5050430;28;20487;-69
2021/06/09 10:03:18;;;;;;;32.20;30.33;;;26.80;66.30;;;;;;5050651;28;20507;-68
2021/06/09 10:05:44;;;;;;;31.13;29.23;;;26.90;65.20;;;;;;5053883;28;20451;-68
2021/06/09 10:08:10;;;;;;;33.03;31.10;;;27.10;61.70;;;;;;5054052;28;21037;-69
2021/06/09 10:10:37;;;;;;;33.40;31.27;;;27.10;59.50;;;;;;5054315;28;20542;-68
2021/06/09 10:13:08;;;;;;;34.37;32.47;;;27.30;59.50;;;;;;5054155;28;20817;-68
2021/06/09 10:15:36;;;;;;;35.10;32.90;;;27.30;59.70;;;;;;5054104;28;20452;-68
2021/06/09 10:18:17;;;;;;;32.47;30.57;;;27.60;61.50;;;;;;5053851;28;20451;-68
2021/06/09 10:20:47;;;;;;;36.13;33.87;;;28.00;61.50;;;;;;5053855;28;20484;-68
2021/06/09 10:23:36;;;;;;;32.40;30.50;;;28.50;60.20;;;;;;5053898;28;20448;-68
2021/06/09 10:26:06;;;;;;;34.13;32.20;;;28.50;57.30;;;;;;5053769;28;20447;-68
2021/06/09 10:28:56;;;;;;;36.30;34.10;;;28.30;57.80;;;;;;5053878;28;20829;-68
2021/06/09 10:31:23;;;;;;;37.00;34.63;;;28.10;57.30;;;;;;5053865;28;20460;-68
2021/06/09 10:33:51;;;;;;;34.50;32.50;;;28.00;57.90;;;;;;5053732;28;20444;-69
2021/06/09 10:36:17;;;;;;;35.43;33.30;;;28.30;59.30;;;;;;5053775;28;20799;-69
2021/06/09 10:38:45;;;;;;;35.87;33.50;;;28.80;59.60;;;;;;5053571;28;20934;-69
2021/06/09 10:41:13;;;;;;;34.80;32.60;;;29.10;59.20;;;;;;5053525;28;20985;-69
2021/06/09 10:43:41;;;;;;;37.73;35.43;;;29.50;59.60;;;;;;5053437;28;20455;-68
2021/06/09 10:46:09;;;;;;;39.33;36.83;;;29.60;57.70;;;;;;5053100;28;20452;-69
2021/06/09 10:48:36;;;;;;;40.17;37.47;;;29.80;54.00;;;;;;5053508;28;20548;-68
2021/06/09 10:51:05;;;;;;;36.33;34.03;;;29.50;54.20;;;;;;5053410;28;20464;-69
2021/06/09 10:53:31;;;;;;;36.43;34.40;;;29.70;54.10;;;;;;5053484;28;20436;-69
2021/06/09 10:55:58;;;;;;;38.63;36.33;;;29.70;52.10;;;;;;5053200;28;20443;-68
2021/06/09 10:58:25;;;;;;;36.77;34.47;;;29.10;52.40;;;;;;5053297;28;20436;-68
2021/06/09 11:00:55;;;;;;;35.87;33.73;;;29.80;53.10;;;;;;5053405;28;20484;-69
2021/06/09 11:03:22;;;;;;;41.23;38.63;;;30.60;52.80;;;;;;5053313;28;20447;-68
2021/06/09 11:05:49;;;;;;;42.17;39.43;;;30.30;52.70;;;;;;5053152;28;20444;-69
2021/06/09 11:08:17;;;;;;;43.63;40.87;;;30.70;51.60;;;;;;5052781;28;20521;-69
2021/06/09 11:10:45;;;;;;;38.47;36.27;;;31.60;50.30;;;;;;5053020;28;20467;-69
2021/06/09 11:13:26;;;;;;;41.17;38.63;;;32.10;50.20;;;;;;5053018;28;20440;-69
2021/06/09 11:16:04;;;;;;;40.73;38.20;;;32.20;50.10;;;;;;5052374;28;20451;-69
2021/06/09 11:18:35;;;;;;;43.30;40.13;;;32.10;49.40;;;;;;5052836;28;20466;-69
2021/06/09 11:21:02;;;;;;;42.67;39.90;;;31.70;49.30;;;;;;5052784;28;20487;-69
2021/06/09 11:23:33;;;;;;;39.97;37.43;;;31.20;49.90;;;;;;5052959;28;20448;-68
2021/06/09 11:26:00;;;;;;;38.70;36.50;;;30.80;50.10;;;;;;5052922;28;20447;-68
2021/06/09 11:28:40;;;;;;;40.07;37.17;;;30.60;49.90;;;;;;5052701;28;20452;-68
2021/06/09 11:31:07;;;;;;;42.70;39.80;;;31.40;48.90;;;;;;5052710;28;20499;-68
2021/06/09 11:33:39;;;;;;;40.00;37.80;;;32.10;47.60;;;;;;5052626;28;20446;-68
2021/06/09 11:36:08;;;;;;;38.97;36.67;;;34.20;45.60;;;;;;5052478;28;20197;-68
2021/06/09 11:38:41;;;;;;;38.15;35.35;;;35.30;42.20;;;;;;5052651;28;20209;-68
2021/06/09 11:41:10;;;;;;;35.88;33.97;;;35.20;40.20;;;;;;5052451;28;20232;-68
2021/06/09 11:43:38;;;;;;;35.03;33.22;;;36.90;38.50;;;;;;5052364;28;20745;-68
2021/06/09 11:46:07;;;;;;;35.85;33.75;;;40.20;36.30;;;;;;5052360;28;20679;-69
2021/06/09 11:48:35;;;;;;;35.80;34.00;;;41.20;31.80;;;;;;5052294;28;20281;-69
2021/06/09 11:51:26;;;;;;;39.05;36.95;;;41.10;31.90;;;;;;5052148;28;20225;-69
2021/06/09 11:53:56;;;;;;;34.78;33.17;;;42.80;30.20;;;;;;5052376;28;20208;-69
2021/06/09 11:56:25;;;;;;;30.83;29.45;;;44.80;29.00;;;;;;5052119;28;20208;-69
2021/06/09 11:58:53;;;;;;;32.35;30.95;;;45.60;26.90;;;;;;5052158;28;20589;-69
2021/06/09 12:01:21;;;;;;;33.72;32.22;;;43.60;26.30;;;;;;5051887;28;20233;-69
2021/06/09 12:04:09;;;;;;;36.55;34.65;;;42.30;27.10;;;;;;5051992;28;20292;-69
2021/06/09 12:06:41;;;;;;;36.83;35.03;;;39.70;28.60;;;;;;5051805;28;20216;-69
2021/06/09 12:09:08;;;;;;;34.45;32.65;;;39.10;30.10;;;;;;5051920;28;20205;-68
2021/06/09 12:11:39;;;;;;;32.55;31.02;;;41.10;29.60;;;;;;5051798;28;20228;-69
2021/06/09 12:14:20;;;;;;;34.55;32.72;;;43.00;28.20;;;;;;5051887;28;20204;-69
2021/06/09 12:16:48;;;;;;;36.15;34.35;;;45.00;26.40;;;;;;5051541;28;20213;-69
2021/06/09 12:19:26;;;;;;;34.58;32.97;;;45.40;25.50;;;;;;5051768;28;20209;-69
2021/06/09 12:21:57;;;;;;;33.88;32.17;;;45.70;25.00;;;;;;5051766;28;20759;-69
2021/06/09 12:24:25;;;;;;;34.45;32.85;;;41.90;26.90;;;;;;5051564;28;20624;-69
2021/06/09 12:26:58;;;;;;;36.05;34.25;;;39.80;29.10;;;;;;5051296;28;20213;-69
2021/06/09 12:29:27;;;;;;;33.85;32.13;;;38.10;30.10;;;;;;5050947;28;20255;-69
2021/06/09 12:31:54;;;;;;;34.80;32.78;;;38.60;31.80;;;;;;5051418;28;20227;-69
2021/06/09 12:34:23;;;;;;;34.70;33.00;;;39.70;29.40;;;;;;5051611;28;20744;-68
2021/06/09 12:36:54;;;;;;;34.15;32.35;;;38.50;29.90;;;;;;5051258;28;20201;-68